sensor_id;sensor_type;location;lat;lon;timestamp;P1;durP1;ratioP1;P2;durP2;ratioP2
70153;SDS011;57519;51.494;-2.626;2023-06-22T00:01:54;16.33;;;7.17;;
70153;SDS011;57519;51.494;-2.626;2023-06-22T00:04:20;18.03;;;6.40;;
70153;SDS011;57519;51.494;-2.626;2023-06-22T00:06:45;16.37;;;6.37;;
70153;SDS011;57519;51.494;-2.626;2023-06-22T00:09:11;12.48;;;6.30;;
70153;SDS011;57519;51.494;-2.626;2023-06-22T00:11:37;10.10;;;5.60;;
70153;SDS011;57519;51.494;-2.626;2023-06-22T00:14:03;14.27;;;6.43;;
70153;SDS011;57519;51.494;-2.626;2023-06-22T00:16:29;9.57;;;5.78;;
70153;SDS011;57519;51.494;-2.626;2023-06-22T00:18:56;15.03;;;6.03;;
70153;SDS011;57519;51.494;-2.626;2023-06-22T00:21:23;15.15;;;5.93;;
70153;SDS011;57519;51.494;-2.626;2023-06-22T00:23:48;15.50;;;6.20;;
70153;SDS011;57519;51.494;-2.626;2023-06-22T00:26:14;12.85;;;6.13;;
70153;SDS011;57519;51.494;-2.626;2023-06-22T00:28:39;14.50;;;6.83;;
70153;SDS011;57519;51.494;-2.626;2023-06-22T00:31:05;11.53;;;6.03;;
70153;SDS011;57519;51.494;-2.626;2023-06-22T00:33:30;14.10;;;6.20;;
70153;SDS011;57519;51.494;-2.626;2023-06-22T00:35:56;17.58;;;7.18;;
70153;SDS011;57519;51.494;-2.626;2023-06-22T00:38:22;13.77;;;6.10;;
70153;SDS011;57519;51.494;-2.626;2023-06-22T00:40:47;15.38;;;6.05;;
70153;SDS011;57519;51.494;-2.626;2023-06-22T00:43:12;11.97;;;5.40;;
70153;SDS011;57519;51.494;-2.626;2023-06-22T00:45:38;10.83;;;5.50;;
70153;SDS011;57519;51.494;-2.626;2023-06-22T00:48:03;14.87;;;6.37;;
70153;SDS011;57519;51.494;-2.626;2023-06-22T00:50:30;14.63;;;6.72;;
70153;SDS011;57519;51.494;-2.626;2023-06-22T00:53:03;13.55;;;6.40;;
70153;SDS011;57519;51.494;-2.626;2023-06-22T00:55:34;11.98;;;6.05;;
70153;SDS011;57519;51.494;-2.626;2023-06-22T00:58:03;14.23;;;5.83;;
70153;SDS011;57519;51.494;-2.626;2023-06-22T01:00:30;16.88;;;6.65;;
70153;SDS011;57519;51.494;-2.626;2023-06-22T01:02:57;13.25;;;6.22;;
70153;SDS011;57519;51.494;-2.626;2023-06-22T01:05:23;12.68;;;5.82;;
70153;SDS011;57519;51.494;-2.626;2023-06-22T01:13:19;14.73;;;6.68;;
70153;SDS011;57519;51.494;-2.626;2023-06-22T01:16:13;14.23;;;6.35;;
70153;SDS011;57519;51.494;-2.626;2023-06-22T01:18:43;14.83;;;6.70;;
70153;SDS011;57519;51.494;-2.626;2023-06-22T01:21:13;15.98;;;6.72;;
70153;SDS011;57519;51.494;-2.626;2023-06-22T01:23:47;12.85;;;6.47;;
70153;SDS011;57519;51.494;-2.626;2023-06-22T01:26:25;15.18;;;7.45;;
70153;SDS011;57519;51.494;-2.626;2023-06-22T01:29:03;9.93;;;5.85;;
70153;SDS011;57519;51.494;-2.626;2023-06-22T01:31:30;14.10;;;6.10;;
70153;SDS011;57519;51.494;-2.626;2023-06-22T01:33:59;14.85;;;6.78;;
70153;SDS011;57519;51.494;-2.626;2023-06-22T01:36:28;14.95;;;7.15;;
70153;SDS011;57519;51.494;-2.626;2023-06-22T01:38:55;13.68;;;6.65;;
70153;SDS011;57519;51.494;-2.626;2023-06-22T01:41:25;14.85;;;6.72;;
70153;SDS011;57519;51.494;-2.626;2023-06-22T01:43:51;11.87;;;6.57;;
70153;SDS011;57519;51.494;-2.626;2023-06-22T01:46:18;14.95;;;6.53;;
70153;SDS011;57519;51.494;-2.626;2023-06-22T01:48:45;13.75;;;6.20;;
70153;SDS011;57519;51.494;-2.626;2023-06-22T01:51:11;13.07;;;6.15;;
70153;SDS011;57519;51.494;-2.626;2023-06-22T01:53:37;12.27;;;6.20;;
70153;SDS011;57519;51.494;-2.626;2023-06-22T01:56:02;14.07;;;6.73;;
70153;SDS011;57519;51.494;-2.626;2023-06-22T01:58:29;14.77;;;6.97;;
70153;SDS011;57519;51.494;-2.626;2023-06-22T02:01:00;14.18;;;7.03;;
70153;SDS011;57519;51.494;-2.626;2023-06-22T02:03:36;14.95;;;6.72;;
70153;SDS011;57519;51.494;-2.626;2023-06-22T02:06:07;14.60;;;7.15;;
70153;SDS011;57519;51.494;-2.626;2023-06-22T02:08:40;16.40;;;6.38;;
70153;SDS011;57519;51.494;-2.626;2023-06-22T02:11:10;11.50;;;5.93;;
70153;SDS011;57519;51.494;-2.626;2023-06-22T02:13:40;13.85;;;6.50;;
70153;SDS011;57519;51.494;-2.626;2023-06-22T02:16:08;15.45;;;6.13;;
70153;SDS011;57519;51.494;-2.626;2023-06-22T02:18:36;13.07;;;6.82;;
70153;SDS011;57519;51.494;-2.626;2023-06-22T02:21:02;14.90;;;6.90;;
70153;SDS011;57519;51.494;-2.626;2023-06-22T02:23:28;16.95;;;7.25;;
70153;SDS011;57519;51.494;-2.626;2023-06-22T02:25:53;13.40;;;6.67;;
70153;SDS011;57519;51.494;-2.626;2023-06-22T02:28:19;14.13;;;7.07;;
70153;SDS011;57519;51.494;-2.626;2023-06-22T02:30:44;18.80;;;7.20;;
70153;SDS011;57519;51.494;-2.626;2023-06-22T02:33:10;12.47;;;5.97;;
70153;SDS011;57519;51.494;-2.626;2023-06-22T02:35:35;14.80;;;6.50;;
70153;SDS011;57519;51.494;-2.626;2023-06-22T02:38:01;17.00;;;7.27;;
70153;SDS011;57519;51.494;-2.626;2023-06-22T02:40:28;15.13;;;6.80;;
70153;SDS011;57519;51.494;-2.626;2023-06-22T02:42:54;16.93;;;7.13;;
70153;SDS011;57519;51.494;-2.626;2023-06-22T02:45:20;15.32;;;6.45;;
70153;SDS011;57519;51.494;-2.626;2023-06-22T02:47:46;16.50;;;7.30;;
70153;SDS011;57519;51.494;-2.626;2023-06-22T02:50:13;12.57;;;6.57;;
70153;SDS011;57519;51.494;-2.626;2023-06-22T02:52:39;13.60;;;6.68;;
70153;SDS011;57519;51.494;-2.626;2023-06-22T02:55:04;19.10;;;6.90;;
70153;SDS011;57519;51.494;-2.626;2023-06-22T02:57:32;17.13;;;7.43;;
70153;SDS011;57519;51.494;-2.626;2023-06-22T02:59:57;15.95;;;7.13;;
70153;SDS011;57519;51.494;-2.626;2023-06-22T03:02:23;16.50;;;7.57;;
70153;SDS011;57519;51.494;-2.626;2023-06-22T03:04:48;13.50;;;7.00;;
70153;SDS011;57519;51.494;-2.626;2023-06-22T03:07:14;18.10;;;8.57;;
70153;SDS011;57519;51.494;-2.626;2023-06-22T03:09:40;19.60;;;7.70;;
70153;SDS011;57519;51.494;-2.626;2023-06-22T03:12:07;18.45;;;7.63;;
70153;SDS011;57519;51.494;-2.626;2023-06-22T03:14:33;13.70;;;6.70;;
70153;SDS011;57519;51.494;-2.626;2023-06-22T03:16:58;14.63;;;6.60;;
70153;SDS011;57519;51.494;-2.626;2023-06-22T03:19:28;16.73;;;7.18;;
70153;SDS011;57519;51.494;-2.626;2023-06-22T03:21:54;18.83;;;8.43;;
70153;SDS011;57519;51.494;-2.626;2023-06-22T03:24:19;13.60;;;6.87;;
70153;SDS011;57519;51.494;-2.626;2023-06-22T03:26:45;15.67;;;6.43;;
70153;SDS011;57519;51.494;-2.626;2023-06-22T03:29:11;15.52;;;6.35;;
70153;SDS011;57519;51.494;-2.626;2023-06-22T03:31:37;14.32;;;7.30;;
70153;SDS011;57519;51.494;-2.626;2023-06-22T03:34:02;17.57;;;7.70;;
70153;SDS011;57519;51.494;-2.626;2023-06-22T03:36:28;14.67;;;6.67;;
70153;SDS011;57519;51.494;-2.626;2023-06-22T03:38:53;18.73;;;8.37;;
70153;SDS011;57519;51.494;-2.626;2023-06-22T03:41:19;19.58;;;8.43;;
70153;SDS011;57519;51.494;-2.626;2023-06-22T03:43:44;18.50;;;8.17;;
70153;SDS011;57519;51.494;-2.626;2023-06-22T03:46:10;13.53;;;7.07;;
70153;SDS011;57519;51.494;-2.626;2023-06-22T03:48:35;14.87;;;7.63;;
70153;SDS011;57519;51.494;-2.626;2023-06-22T03:51:01;15.47;;;7.53;;
70153;SDS011;57519;51.494;-2.626;2023-06-22T03:53:28;17.70;;;7.78;;
70153;SDS011;57519;51.494;-2.626;2023-06-22T03:55:53;21.33;;;8.10;;
70153;SDS011;57519;51.494;-2.626;2023-06-22T03:58:19;18.33;;;7.53;;
70153;SDS011;57519;51.494;-2.626;2023-06-22T04:00:46;20.40;;;8.83;;
70153;SDS011;57519;51.494;-2.626;2023-06-22T04:03:12;17.40;;;7.70;;
70153;SDS011;57519;51.494;-2.626;2023-06-22T04:05:39;15.55;;;7.72;;
70153;SDS011;57519;51.494;-2.626;2023-06-22T04:08:05;18.70;;;7.38;;
70153;SDS011;57519;51.494;-2.626;2023-06-22T04:10:30;18.00;;;8.32;;
70153;SDS011;57519;51.494;-2.626;2023-06-22T04:12:56;16.07;;;7.43;;
70153;SDS011;57519;51.494;-2.626;2023-06-22T04:15:21;17.60;;;8.40;;
70153;SDS011;57519;51.494;-2.626;2023-06-22T04:17:47;17.07;;;8.03;;
70153;SDS011;57519;51.494;-2.626;2023-06-22T04:20:12;13.37;;;7.13;;
70153;SDS011;57519;51.494;-2.626;2023-06-22T04:22:38;12.17;;;6.57;;
70153;SDS011;57519;51.494;-2.626;2023-06-22T04:25:06;14.33;;;7.30;;
70153;SDS011;57519;51.494;-2.626;2023-06-22T04:27:32;16.65;;;7.65;;
70153;SDS011;57519;51.494;-2.626;2023-06-22T04:30:02;18.80;;;8.20;;
70153;SDS011;57519;51.494;-2.626;2023-06-22T04:32:28;17.07;;;7.40;;
70153;SDS011;57519;51.494;-2.626;2023-06-22T04:34:54;15.85;;;7.65;;
70153;SDS011;57519;51.494;-2.626;2023-06-22T04:37:20;15.93;;;7.57;;
70153;SDS011;57519;51.494;-2.626;2023-06-22T04:39:48;14.70;;;7.43;;
70153;SDS011;57519;51.494;-2.626;2023-06-22T04:42:14;15.68;;;7.68;;
70153;SDS011;57519;51.494;-2.626;2023-06-22T04:44:39;14.80;;;6.73;;
70153;SDS011;57519;51.494;-2.626;2023-06-22T04:47:06;19.00;;;8.45;;
70153;SDS011;57519;51.494;-2.626;2023-06-22T04:49:33;15.90;;;7.63;;
70153;SDS011;57519;51.494;-2.626;2023-06-22T04:52:04;18.00;;;8.00;;
70153;SDS011;57519;51.494;-2.626;2023-06-22T04:54:31;17.35;;;7.95;;
70153;SDS011;57519;51.494;-2.626;2023-06-22T04:57:00;14.07;;;7.80;;
70153;SDS011;57519;51.494;-2.626;2023-06-22T04:59:29;17.60;;;8.23;;
70153;SDS011;57519;51.494;-2.626;2023-06-22T05:01:56;19.80;;;9.05;;
70153;SDS011;57519;51.494;-2.626;2023-06-22T05:04:25;17.30;;;8.63;;
70153;SDS011;57519;51.494;-2.626;2023-06-22T05:06:52;14.45;;;6.60;;
70153;SDS011;57519;51.494;-2.626;2023-06-22T05:09:17;17.27;;;8.25;;
70153;SDS011;57519;51.494;-2.626;2023-06-22T05:11:43;14.03;;;7.10;;
70153;SDS011;57519;51.494;-2.626;2023-06-22T05:14:09;16.27;;;7.78;;
70153;SDS011;57519;51.494;-2.626;2023-06-22T05:16:36;14.70;;;7.17;;
70153;SDS011;57519;51.494;-2.626;2023-06-22T05:19:02;16.27;;;7.43;;
70153;SDS011;57519;51.494;-2.626;2023-06-22T05:21:30;18.25;;;7.32;;
70153;SDS011;57519;51.494;-2.626;2023-06-22T05:23:56;20.00;;;8.23;;
70153;SDS011;57519;51.494;-2.626;2023-06-22T05:26:27;15.25;;;7.07;;
70153;SDS011;57519;51.494;-2.626;2023-06-22T05:28:58;16.13;;;8.32;;
70153;SDS011;57519;51.494;-2.626;2023-06-22T05:31:23;15.83;;;7.60;;
70153;SDS011;57519;51.494;-2.626;2023-06-22T05:33:50;17.17;;;7.97;;
70153;SDS011;57519;51.494;-2.626;2023-06-22T05:36:16;17.93;;;8.03;;
70153;SDS011;57519;51.494;-2.626;2023-06-22T05:38:44;17.80;;;8.00;;
70153;SDS011;57519;51.494;-2.626;2023-06-22T05:41:10;14.30;;;7.70;;
70153;SDS011;57519;51.494;-2.626;2023-06-22T05:43:36;15.87;;;7.67;;
70153;SDS011;57519;51.494;-2.626;2023-06-22T05:46:02;21.95;;;8.70;;
70153;SDS011;57519;51.494;-2.626;2023-06-22T05:48:28;15.50;;;7.60;;
70153;SDS011;57519;51.494;-2.626;2023-06-22T05:50:54;22.58;;;8.48;;
70153;SDS011;57519;51.494;-2.626;2023-06-22T05:53:19;22.50;;;9.07;;
70153;SDS011;57519;51.494;-2.626;2023-06-22T05:55:45;17.80;;;8.40;;
70153;SDS011;57519;51.494;-2.626;2023-06-22T05:58:11;21.90;;;8.63;;
70153;SDS011;57519;51.494;-2.626;2023-06-22T06:00:38;18.92;;;8.20;;
70153;SDS011;57519;51.494;-2.626;2023-06-22T06:03:03;13.97;;;7.87;;
70153;SDS011;57519;51.494;-2.626;2023-06-22T06:05:33;16.63;;;7.73;;
70153;SDS011;57519;51.494;-2.626;2023-06-22T06:07:59;14.50;;;6.72;;
70153;SDS011;57519;51.494;-2.626;2023-06-22T06:10:25;16.52;;;8.18;;
70153;SDS011;57519;51.494;-2.626;2023-06-22T06:12:51;15.87;;;8.03;;
70153;SDS011;57519;51.494;-2.626;2023-06-22T06:15:17;21.35;;;8.93;;
70153;SDS011;57519;51.494;-2.626;2023-06-22T06:17:46;20.47;;;8.87;;
70153;SDS011;57519;51.494;-2.626;2023-06-22T06:20:13;16.92;;;8.10;;
70153;SDS011;57519;51.494;-2.626;2023-06-22T06:22:38;16.63;;;7.63;;
70153;SDS011;57519;51.494;-2.626;2023-06-22T06:25:04;18.03;;;8.73;;
70153;SDS011;57519;51.494;-2.626;2023-06-22T06:27:30;19.50;;;8.43;;
70153;SDS011;57519;51.494;-2.626;2023-06-22T06:29:56;23.70;;;9.20;;
70153;SDS011;57519;51.494;-2.626;2023-06-22T06:32:21;22.45;;;8.75;;
70153;SDS011;57519;51.494;-2.626;2023-06-22T06:34:47;20.93;;;7.87;;
70153;SDS011;57519;51.494;-2.626;2023-06-22T06:37:12;17.37;;;7.07;;
70153;SDS011;57519;51.494;-2.626;2023-06-22T06:39:40;11.93;;;5.63;;
70153;SDS011;57519;51.494;-2.626;2023-06-22T06:42:05;16.33;;;6.77;;
70153;SDS011;57519;51.494;-2.626;2023-06-22T06:44:31;15.25;;;6.50;;
70153;SDS011;57519;51.494;-2.626;2023-06-22T06:46:56;13.87;;;5.07;;
70153;SDS011;57519;51.494;-2.626;2023-06-22T06:49:22;13.17;;;5.40;;
70153;SDS011;57519;51.494;-2.626;2023-06-22T06:51:47;10.35;;;4.93;;
70153;SDS011;57519;51.494;-2.626;2023-06-22T06:54:13;13.87;;;6.07;;
70153;SDS011;57519;51.494;-2.626;2023-06-22T06:56:38;18.27;;;5.70;;
70153;SDS011;57519;51.494;-2.626;2023-06-22T06:59:04;12.77;;;5.63;;
70153;SDS011;57519;51.494;-2.626;2023-06-22T07:01:29;9.03;;;4.73;;
70153;SDS011;57519;51.494;-2.626;2023-06-22T07:03:58;15.18;;;5.22;;
70153;SDS011;57519;51.494;-2.626;2023-06-22T07:06:25;10.43;;;4.43;;
70153;SDS011;57519;51.494;-2.626;2023-06-22T07:08:54;7.88;;;4.03;;
70153;SDS011;57519;51.494;-2.626;2023-06-22T07:11:20;11.70;;;4.05;;
70153;SDS011;57519;51.494;-2.626;2023-06-22T07:13:45;10.60;;;4.67;;
70153;SDS011;57519;51.494;-2.626;2023-06-22T07:16:11;10.65;;;4.22;;
70153;SDS011;57519;51.494;-2.626;2023-06-22T07:18:36;14.93;;;4.67;;
70153;SDS011;57519;51.494;-2.626;2023-06-22T07:21:04;8.80;;;4.43;;
70153;SDS011;57519;51.494;-2.626;2023-06-22T07:23:31;10.52;;;4.55;;
70153;SDS011;57519;51.494;-2.626;2023-06-22T07:25:57;12.63;;;5.77;;
70153;SDS011;57519;51.494;-2.626;2023-06-22T07:28:23;12.03;;;4.93;;
70153;SDS011;57519;51.494;-2.626;2023-06-22T07:30:48;12.35;;;4.53;;
70153;SDS011;57519;51.494;-2.626;2023-06-22T07:33:13;10.57;;;4.40;;
70153;SDS011;57519;51.494;-2.626;2023-06-22T07:35:39;11.47;;;5.00;;
70153;SDS011;57519;51.494;-2.626;2023-06-22T07:38:04;12.73;;;5.30;;
70153;SDS011;57519;51.494;-2.626;2023-06-22T07:40:30;11.25;;;4.97;;
70153;SDS011;57519;51.494;-2.626;2023-06-22T07:42:56;11.00;;;5.20;;
70153;SDS011;57519;51.494;-2.626;2023-06-22T07:45:21;15.27;;;5.80;;
70153;SDS011;57519;51.494;-2.626;2023-06-22T07:47:47;8.23;;;4.40;;
70153;SDS011;57519;51.494;-2.626;2023-06-22T07:50:12;9.33;;;4.77;;
70153;SDS011;57519;51.494;-2.626;2023-06-22T07:52:38;8.20;;;4.33;;
70153;SDS011;57519;51.494;-2.626;2023-06-22T07:55:03;9.68;;;4.68;;
70153;SDS011;57519;51.494;-2.626;2023-06-22T07:57:29;12.00;;;5.43;;
70153;SDS011;57519;51.494;-2.626;2023-06-22T08:00:02;15.98;;;6.13;;
70153;SDS011;57519;51.494;-2.626;2023-06-22T08:02:37;8.45;;;4.90;;
70153;SDS011;57519;51.494;-2.626;2023-06-22T08:05:02;10.87;;;5.63;;
70153;SDS011;57519;51.494;-2.626;2023-06-22T08:07:29;13.32;;;5.90;;
70153;SDS011;57519;51.494;-2.626;2023-06-22T08:09:54;18.17;;;6.37;;
70153;SDS011;57519;51.494;-2.626;2023-06-22T08:12:20;13.30;;;5.57;;
70153;SDS011;57519;51.494;-2.626;2023-06-22T08:14:46;12.63;;;5.93;;
70153;SDS011;57519;51.494;-2.626;2023-06-22T08:17:12;13.97;;;6.90;;
70153;SDS011;57519;51.494;-2.626;2023-06-22T08:19:37;11.52;;;6.25;;
70153;SDS011;57519;51.494;-2.626;2023-06-22T08:22:03;14.67;;;6.77;;
70153;SDS011;57519;51.494;-2.626;2023-06-22T08:24:28;11.10;;;6.13;;
70153;SDS011;57519;51.494;-2.626;2023-06-22T08:26:55;12.90;;;6.68;;
70153;SDS011;57519;51.494;-2.626;2023-06-22T08:29:21;11.85;;;7.78;;
70153;SDS011;57519;51.494;-2.626;2023-06-22T08:31:46;12.73;;;6.97;;
70153;SDS011;57519;51.494;-2.626;2023-06-22T08:34:12;13.60;;;5.80;;
70153;SDS011;57519;51.494;-2.626;2023-06-22T08:36:37;17.15;;;7.22;;
70153;SDS011;57519;51.494;-2.626;2023-06-22T08:39:06;10.98;;;5.82;;
70153;SDS011;57519;51.494;-2.626;2023-06-22T08:41:31;14.80;;;6.70;;
70153;SDS011;57519;51.494;-2.626;2023-06-22T08:43:57;11.60;;;5.60;;
70153;SDS011;57519;51.494;-2.626;2023-06-22T08:46:23;9.83;;;5.10;;
70153;SDS011;57519;51.494;-2.626;2023-06-22T08:48:55;9.57;;;4.75;;
70153;SDS011;57519;51.494;-2.626;2023-06-22T08:51:21;12.00;;;5.07;;
70153;SDS011;57519;51.494;-2.626;2023-06-22T08:53:47;11.93;;;5.00;;
70153;SDS011;57519;51.494;-2.626;2023-06-22T08:56:12;13.63;;;4.80;;
70153;SDS011;57519;51.494;-2.626;2023-06-22T08:58:38;11.35;;;4.47;;
70153;SDS011;57519;51.494;-2.626;2023-06-22T09:01:03;10.47;;;5.00;;
70153;SDS011;57519;51.494;-2.626;2023-06-22T09:03:29;15.80;;;5.15;;
70153;SDS011;57519;51.494;-2.626;2023-06-22T09:05:54;14.90;;;5.33;;
70153;SDS011;57519;51.494;-2.626;2023-06-22T09:08:20;9.63;;;3.95;;
70153;SDS011;57519;51.494;-2.626;2023-06-22T09:10:46;9.47;;;4.20;;
70153;SDS011;57519;51.494;-2.626;2023-06-22T09:13:11;10.53;;;4.93;;
70153;SDS011;57519;51.494;-2.626;2023-06-22T09:15:37;10.52;;;4.65;;
70153;SDS011;57519;51.494;-2.626;2023-06-22T09:18:02;8.90;;;4.63;;
70153;SDS011;57519;51.494;-2.626;2023-06-22T09:20:28;7.03;;;4.40;;
70153;SDS011;57519;51.494;-2.626;2023-06-22T09:22:53;7.30;;;4.60;;
70153;SDS011;57519;51.494;-2.626;2023-06-22T09:25:19;9.40;;;4.67;;
70153;SDS011;57519;51.494;-2.626;2023-06-22T09:27:45;12.95;;;5.28;;
70153;SDS011;57519;51.494;-2.626;2023-06-22T09:30:11;12.07;;;4.77;;
70153;SDS011;57519;51.494;-2.626;2023-06-22T09:32:37;10.27;;;4.70;;
70153;SDS011;57519;51.494;-2.626;2023-06-22T09:35:03;9.10;;;4.27;;
70153;SDS011;57519;51.494;-2.626;2023-06-22T09:37:34;11.10;;;4.65;;
70153;SDS011;57519;51.494;-2.626;2023-06-22T09:39:59;11.20;;;4.63;;
70153;SDS011;57519;51.494;-2.626;2023-06-22T09:42:25;9.17;;;4.40;;
70153;SDS011;57519;51.494;-2.626;2023-06-22T09:44:50;14.80;;;4.97;;
70153;SDS011;57519;51.494;-2.626;2023-06-22T09:47:16;9.67;;;4.53;;
70153;SDS011;57519;51.494;-2.626;2023-06-22T09:49:41;12.10;;;5.10;;
70153;SDS011;57519;51.494;-2.626;2023-06-22T09:52:07;9.73;;;4.47;;
70153;SDS011;57519;51.494;-2.626;2023-06-22T09:54:32;11.20;;;4.68;;
70153;SDS011;57519;51.494;-2.626;2023-06-22T09:56:58;11.73;;;4.67;;
70153;SDS011;57519;51.494;-2.626;2023-06-22T09:59:23;11.97;;;4.90;;
70153;SDS011;57519;51.494;-2.626;2023-06-22T10:01:49;10.30;;;4.77;;
70153;SDS011;57519;51.494;-2.626;2023-06-22T10:04:14;9.15;;;4.35;;
70153;SDS011;57519;51.494;-2.626;2023-06-22T10:06:40;9.67;;;4.83;;
70153;SDS011;57519;51.494;-2.626;2023-06-22T10:09:06;11.97;;;5.13;;
70153;SDS011;57519;51.494;-2.626;2023-06-22T10:11:32;9.50;;;4.72;;
70153;SDS011;57519;51.494;-2.626;2023-06-22T10:14:00;11.57;;;5.07;;
70153;SDS011;57519;51.494;-2.626;2023-06-22T10:16:30;11.23;;;4.95;;
70153;SDS011;57519;51.494;-2.626;2023-06-22T10:18:56;9.18;;;4.85;;
70153;SDS011;57519;51.494;-2.626;2023-06-22T10:21:22;9.87;;;4.40;;
70153;SDS011;57519;51.494;-2.626;2023-06-22T10:23:47;10.80;;;4.70;;
70153;SDS011;57519;51.494;-2.626;2023-06-22T10:26:13;7.70;;;3.80;;
70153;SDS011;57519;51.494;-2.626;2023-06-22T10:28:38;13.65;;;5.22;;
70153;SDS011;57519;51.494;-2.626;2023-06-22T10:31:04;10.27;;;4.23;;
70153;SDS011;57519;51.494;-2.626;2023-06-22T10:33:29;14.30;;;4.87;;
70153;SDS011;57519;51.494;-2.626;2023-06-22T10:35:54;11.17;;;4.53;;
70153;SDS011;57519;51.494;-2.626;2023-06-22T10:38:20;11.23;;;4.90;;
70153;SDS011;57519;51.494;-2.626;2023-06-22T10:40:46;13.10;;;4.67;;
70153;SDS011;57519;51.494;-2.626;2023-06-22T10:43:11;14.80;;;5.03;;
70153;SDS011;57519;51.494;-2.626;2023-06-22T10:45:36;7.97;;;4.13;;
70153;SDS011;57519;51.494;-2.626;2023-06-22T10:48:02;13.02;;;3.78;;
70153;SDS011;57519;51.494;-2.626;2023-06-22T10:50:28;11.32;;;4.75;;
70153;SDS011;57519;51.494;-2.626;2023-06-22T10:52:54;11.57;;;4.50;;
70153;SDS011;57519;51.494;-2.626;2023-06-22T10:55:19;13.63;;;5.55;;
70153;SDS011;57519;51.494;-2.626;2023-06-22T10:57:45;11.70;;;4.83;;
70153;SDS011;57519;51.494;-2.626;2023-06-22T11:00:12;13.35;;;5.10;;
70153;SDS011;57519;51.494;-2.626;2023-06-22T11:02:39;8.67;;;3.63;;
70153;SDS011;57519;51.494;-2.626;2023-06-22T11:05:08;10.32;;;4.22;;
70153;SDS011;57519;51.494;-2.626;2023-06-22T11:07:33;9.48;;;4.07;;
70153;SDS011;57519;51.494;-2.626;2023-06-22T11:09:59;10.23;;;3.97;;
70153;SDS011;57519;51.494;-2.626;2023-06-22T11:12:24;9.70;;;4.20;;
70153;SDS011;57519;51.494;-2.626;2023-06-22T11:14:50;13.23;;;4.60;;
70153;SDS011;57519;51.494;-2.626;2023-06-22T11:17:16;9.45;;;4.15;;
70153;SDS011;57519;51.494;-2.626;2023-06-22T11:19:43;12.00;;;4.30;;
70153;SDS011;57519;51.494;-2.626;2023-06-22T11:22:09;10.90;;;4.30;;
70153;SDS011;57519;51.494;-2.626;2023-06-22T11:24:35;7.77;;;4.17;;
70153;SDS011;57519;51.494;-2.626;2023-06-22T11:27:00;18.58;;;8.73;;
70153;SDS011;57519;51.494;-2.626;2023-06-22T11:29:26;11.47;;;4.37;;
70153;SDS011;57519;51.494;-2.626;2023-06-22T11:31:51;8.83;;;3.43;;
70153;SDS011;57519;51.494;-2.626;2023-06-22T11:34:17;11.82;;;4.68;;
70153;SDS011;57519;51.494;-2.626;2023-06-22T11:36:44;11.30;;;4.03;;
70153;SDS011;57519;51.494;-2.626;2023-06-22T11:39:10;6.22;;;3.72;;
70153;SDS011;57519;51.494;-2.626;2023-06-22T11:41:35;7.75;;;3.40;;
70153;SDS011;57519;51.494;-2.626;2023-06-22T11:44:01;10.30;;;4.53;;
70153;SDS011;57519;51.494;-2.626;2023-06-22T11:46:26;8.10;;;4.30;;
70153;SDS011;57519;51.494;-2.626;2023-06-22T11:48:52;8.05;;;4.05;;
70153;SDS011;57519;51.494;-2.626;2023-06-22T11:51:17;10.57;;;4.20;;
70153;SDS011;57519;51.494;-2.626;2023-06-22T11:53:43;11.77;;;4.67;;
70153;SDS011;57519;51.494;-2.626;2023-06-22T11:56:08;14.00;;;4.30;;
70153;SDS011;57519;51.494;-2.626;2023-06-22T11:58:33;9.53;;;3.73;;
70153;SDS011;57519;51.494;-2.626;2023-06-22T12:00:59;8.23;;;3.50;;
70153;SDS011;57519;51.494;-2.626;2023-06-22T12:03:24;14.13;;;4.67;;
70153;SDS011;57519;51.494;-2.626;2023-06-22T12:05:50;9.77;;;4.23;;
70153;SDS011;57519;51.494;-2.626;2023-06-22T12:08:19;10.20;;;4.00;;
70153;SDS011;57519;51.494;-2.626;2023-06-22T12:10:44;11.70;;;4.23;;
70153;SDS011;57519;51.494;-2.626;2023-06-22T12:13:10;9.85;;;3.95;;
70153;SDS011;57519;51.494;-2.626;2023-06-22T12:15:35;10.00;;;4.40;;
70153;SDS011;57519;51.494;-2.626;2023-06-22T12:18:01;13.40;;;4.60;;
70153;SDS011;57519;51.494;-2.626;2023-06-22T12:20:26;9.97;;;4.30;;
70153;SDS011;57519;51.494;-2.626;2023-06-22T12:22:51;12.48;;;4.80;;
70153;SDS011;57519;51.494;-2.626;2023-06-22T12:25:17;8.23;;;4.43;;
70153;SDS011;57519;51.494;-2.626;2023-06-22T12:27:43;9.87;;;4.37;;
70153;SDS011;57519;51.494;-2.626;2023-06-22T12:30:08;15.20;;;4.30;;
70153;SDS011;57519;51.494;-2.626;2023-06-22T12:32:34;7.70;;;3.43;;
70153;SDS011;57519;51.494;-2.626;2023-06-22T12:34:59;9.27;;;3.80;;
70153;SDS011;57519;51.494;-2.626;2023-06-22T12:37:25;10.47;;;4.57;;
70153;SDS011;57519;51.494;-2.626;2023-06-22T12:39:50;8.87;;;4.03;;
70153;SDS011;57519;51.494;-2.626;2023-06-22T12:42:16;9.87;;;4.20;;
70153;SDS011;57519;51.494;-2.626;2023-06-22T12:44:42;8.18;;;3.97;;
70153;SDS011;57519;51.494;-2.626;2023-06-22T12:47:08;13.70;;;4.55;;
70153;SDS011;57519;51.494;-2.626;2023-06-22T12:49:36;10.67;;;4.13;;
70153;SDS011;57519;51.494;-2.626;2023-06-22T12:52:02;11.52;;;4.40;;
70153;SDS011;57519;51.494;-2.626;2023-06-22T12:54:28;9.02;;;4.03;;
70153;SDS011;57519;51.494;-2.626;2023-06-22T12:56:54;9.40;;;3.77;;
70153;SDS011;57519;51.494;-2.626;2023-06-22T12:59:21;9.38;;;4.07;;
70153;SDS011;57519;51.494;-2.626;2023-06-22T13:01:47;9.55;;;4.22;;
70153;SDS011;57519;51.494;-2.626;2023-06-22T13:04:12;7.07;;;4.07;;
70153;SDS011;57519;51.494;-2.626;2023-06-22T13:06:42;9.27;;;3.78;;
70153;SDS011;57519;51.494;-2.626;2023-06-22T13:09:09;10.05;;;4.00;;
70153;SDS011;57519;51.494;-2.626;2023-06-22T13:11:35;10.02;;;4.13;;
70153;SDS011;57519;51.494;-2.626;2023-06-22T13:14:00;11.13;;;4.40;;
70153;SDS011;57519;51.494;-2.626;2023-06-22T13:16:26;11.27;;;4.70;;
70153;SDS011;57519;51.494;-2.626;2023-06-22T13:18:51;9.60;;;4.00;;
70153;SDS011;57519;51.494;-2.626;2023-06-22T13:21:17;8.83;;;4.03;;
70153;SDS011;57519;51.494;-2.626;2023-06-22T13:23:42;9.27;;;4.13;;
70153;SDS011;57519;51.494;-2.626;2023-06-22T13:26:08;12.90;;;4.50;;
70153;SDS011;57519;51.494;-2.626;2023-06-22T13:28:33;9.80;;;4.20;;
70153;SDS011;57519;51.494;-2.626;2023-06-22T13:30:59;10.02;;;3.85;;
70153;SDS011;57519;51.494;-2.626;2023-06-22T13:33:24;12.57;;;4.70;;
70153;SDS011;57519;51.494;-2.626;2023-06-22T13:35:50;8.90;;;4.10;;
70153;SDS011;57519;51.494;-2.626;2023-06-22T13:38:15;6.43;;;3.10;;
70153;SDS011;57519;51.494;-2.626;2023-06-22T13:40:42;13.55;;;4.57;;
70153;SDS011;57519;51.494;-2.626;2023-06-22T13:43:08;10.37;;;4.07;;
70153;SDS011;57519;51.494;-2.626;2023-06-22T13:45:33;11.88;;;3.63;;
70153;SDS011;57519;51.494;-2.626;2023-06-22T13:47:59;11.60;;;4.10;;
70153;SDS011;57519;51.494;-2.626;2023-06-22T13:50:24;8.40;;;3.27;;
70153;SDS011;57519;51.494;-2.626;2023-06-22T13:52:49;8.25;;;3.63;;
70153;SDS011;57519;51.494;-2.626;2023-06-22T13:55:15;9.93;;;3.70;;
70153;SDS011;57519;51.494;-2.626;2023-06-22T13:57:41;8.47;;;3.83;;
70153;SDS011;57519;51.494;-2.626;2023-06-22T14:00:07;9.55;;;3.67;;
70153;SDS011;57519;51.494;-2.626;2023-06-22T14:02:37;7.50;;;3.55;;
70153;SDS011;57519;51.494;-2.626;2023-06-22T14:05:03;8.30;;;3.40;;
70153;SDS011;57519;51.494;-2.626;2023-06-22T14:07:29;12.40;;;3.85;;
70153;SDS011;57519;51.494;-2.626;2023-06-22T14:09:54;11.57;;;3.97;;
70153;SDS011;57519;51.494;-2.626;2023-06-22T14:12:20;9.00;;;3.53;;
70153;SDS011;57519;51.494;-2.626;2023-06-22T14:14:45;7.45;;;3.55;;
70153;SDS011;57519;51.494;-2.626;2023-06-22T14:17:10;6.97;;;3.10;;
70153;SDS011;57519;51.494;-2.626;2023-06-22T14:19:36;12.40;;;3.90;;
70153;SDS011;57519;51.494;-2.626;2023-06-22T14:22:02;13.20;;;4.77;;
70153;SDS011;57519;51.494;-2.626;2023-06-22T14:24:27;11.52;;;3.53;;